createdAt,value
2022-12-04T00:01:19.629Z,80.43
2022-12-04T00:03:47.440Z,75.87
2022-12-04T00:06:16.779Z,79.37
2022-12-04T00:08:46.182Z,72.77
2022-12-04T00:11:17.439Z,77.83
2022-12-04T00:13:45.486Z,80.50
2022-12-04T00:16:16.598Z,76.80
2022-12-04T00:18:45.021Z,77.93
2022-12-04T00:21:14.176Z,75.83
2022-12-04T00:23:42.962Z,81.73
2022-12-04T00:26:12.827Z,77.90
2022-12-04T00:28:42.703Z,79.10
2022-12-04T00:31:12.867Z,77.20
2022-12-04T00:33:40.890Z,81.70
2022-12-04T00:36:11.077Z,83.13
2022-12-04T00:38:40.041Z,84.20
2022-12-04T00:41:09.342Z,81.10
2022-12-04T00:43:39.190Z,80.60
2022-12-04T00:46:09.209Z,82.00
2022-12-04T00:48:37.412Z,85.93
2022-12-04T00:51:05.867Z,87.70
2022-12-04T00:53:35.002Z,86.10
2022-12-04T00:56:05.249Z,85.63
2022-12-04T00:58:33.276Z,78.93
2022-12-04T01:01:03.659Z,86.27
2022-12-04T01:03:33.193Z,86.50
2022-12-04T01:06:01.285Z,91.03
2022-12-04T01:08:29.536Z,94.47
2022-12-04T01:10:57.460Z,90.77
2022-12-04T01:13:26.219Z,91.73
2022-12-04T01:15:54.129Z,90.00
2022-12-04T01:18:22.163Z,89.73
2022-12-04T01:20:53.110Z,90.87
2022-12-04T01:23:21.252Z,95.53
2022-12-04T01:25:53.655Z,90.77
2022-12-04T01:28:21.836Z,96.17
2022-12-04T01:30:59.800Z,88.57
2022-12-04T01:33:28.060Z,90.93
2022-12-04T01:35:58.805Z,91.67
2022-12-04T01:38:26.969Z,87.97
2022-12-04T01:40:55.911Z,87.93
2022-12-04T01:43:24.145Z,94.43
2022-12-04T01:45:53.432Z,94.80
2022-12-04T01:48:25.811Z,96.93
2022-12-04T01:50:56.926Z,99.77
2022-12-04T01:53:26.435Z,96.83
2022-12-04T01:55:54.542Z,91.53
2022-12-04T01:58:28.660Z,93.23
2022-12-04T02:01:03.765Z,98.37
2022-12-04T02:03:34.689Z,103.90
2022-12-04T02:06:02.807Z,99.17
2022-12-04T02:08:32.718Z,98.23
2022-12-04T02:11:11.259Z,98.13
2022-12-04T02:13:45.394Z,103.43
2022-12-04T02:16:18.838Z,91.43
2022-12-04T02:18:53.702Z,103.67
2022-12-04T02:21:24.295Z,103.73
2022-12-04T02:23:59.341Z,99.00
2022-12-04T02:26:44.359Z,95.90
2022-12-04T02:29:20.101Z,102.53
2022-12-04T02:31:52.255Z,96.00
2022-12-04T02:34:24.864Z,99.03
2022-12-04T02:36:55.787Z,94.60
2022-12-04T02:39:26.708Z,107.67
2022-12-04T02:41:57.900Z,96.87
2022-12-04T02:44:29.462Z,97.83
2022-12-04T02:46:59.433Z,104.43
2022-12-04T02:49:33.557Z,107.10
2022-12-04T02:52:02.081Z,97.73
2022-12-04T02:54:34.534Z,104.40
2022-12-04T02:57:04.548Z,105.07
2022-12-04T02:59:37.238Z,99.97
2022-12-04T03:02:11.070Z,96.27
2022-12-04T03:04:40.491Z,105.13
2022-12-04T03:07:12.125Z,103.13
2022-12-04T03:09:43.465Z,103.63
2022-12-04T03:12:15.635Z,95.87
2022-12-04T03:14:47.986Z,105.33
2022-12-04T03:17:19.982Z,100.93
2022-12-04T03:19:51.613Z,94.30
2022-12-04T03:22:20.658Z,97.13
2022-12-04T03:24:52.197Z,106.73
2022-12-04T03:27:23.232Z,103.03
2022-12-04T03:29:55.349Z,101.67
2022-12-04T03:32:26.905Z,103.20
2022-12-04T03:34:58.109Z,95.73
2022-12-04T03:37:30.664Z,97.63
2022-12-04T03:40:02.311Z,96.53
2022-12-04T03:42:34.925Z,98.03
2022-12-04T03:45:06.354Z,94.17
2022-12-04T03:47:37.511Z,95.83
2022-12-04T03:50:09.843Z,87.63
2022-12-04T03:52:43.461Z,92.53
2022-12-04T03:55:16.986Z,93.77
2022-12-04T03:57:45.812Z,95.53
2022-12-04T04:00:17.848Z,90.50
2022-12-04T04:02:47.900Z,90.70
2022-12-04T04:05:16.901Z,89.53
2022-12-04T04:07:47.608Z,86.87
2022-12-04T04:10:18.945Z,92.63
2022-12-04T04:13:10.928Z,83.50
2022-12-04T04:16:02.143Z,88.33
2022-12-04T04:18:54.362Z,83.43
2022-12-04T04:21:42.600Z,86.43
2022-12-04T04:24:30.311Z,92.10
2022-12-04T04:26:59.330Z,82.83
2022-12-04T04:29:27.520Z,89.77
2022-12-04T04:32:01.413Z,87.80
2022-12-04T04:34:33.719Z,84.87
2022-12-04T04:37:06.535Z,88.13
2022-12-04T04:39:37.437Z,86.77
2022-12-04T04:42:08.828Z,82.23
2022-12-04T04:44:42.312Z,82.50
2022-12-04T04:47:21.562Z,79.90
2022-12-04T04:49:50.501Z,82.10
2022-12-04T04:52:19.823Z,81.50
2022-12-04T04:54:48.260Z,83.27
2022-12-04T04:57:27.001Z,82.33
2022-12-04T04:59:55.131Z,89.60
2022-12-04T05:02:26.026Z,76.50
2022-12-04T05:04:53.909Z,87.43
2022-12-04T05:07:21.771Z,90.10
2022-12-04T05:09:49.581Z,87.50
2022-12-04T05:12:17.484Z,80.90
2022-12-04T05:14:45.330Z,82.70
2022-12-04T05:17:13.216Z,84.63
2022-12-04T05:19:56.430Z,79.00
2022-12-04T05:22:26.439Z,82.30
2022-12-04T05:24:54.918Z,80.67
2022-12-04T05:27:23.530Z,82.17
2022-12-04T05:29:53.718Z,87.10
2022-12-04T05:32:22.397Z,84.30
2022-12-04T05:34:52.258Z,84.93
2022-12-04T05:37:20.881Z,80.13
2022-12-04T05:39:48.987Z,86.37
2022-12-04T05:42:16.902Z,82.57
2022-12-04T05:44:44.890Z,81.73
2022-12-04T05:47:12.842Z,82.27
2022-12-04T05:49:40.739Z,82.50
2022-12-04T05:52:10.562Z,79.23
2022-12-04T05:54:38.605Z,84.47
2022-12-04T05:57:06.523Z,87.37
2022-12-04T05:59:34.333Z,82.23
2022-12-04T06:02:02.210Z,79.60
2022-12-04T06:04:30.083Z,76.07
2022-12-04T06:07:00.240Z,78.87
2022-12-04T06:09:29.380Z,78.87
2022-12-04T06:11:58.574Z,89.00
2022-12-04T06:14:26.700Z,84.17
2022-12-04T06:16:54.648Z,86.47
2022-12-04T06:19:23.287Z,88.30
2022-12-04T06:21:52.317Z,79.03
2022-12-04T06:24:21.668Z,85.67
2022-12-04T06:27:25.453Z,78.93
2022-12-04T06:29:39.127Z,91.10
2022-12-04T06:32:07.051Z,86.20
2022-12-04T06:34:35.584Z,81.83
2022-12-04T06:37:05.916Z,81.63
2022-12-04T06:39:33.712Z,83.67
2022-12-04T06:42:03.045Z,84.97
2022-12-04T06:44:30.837Z,85.53
2022-12-04T06:47:00.947Z,80.73
2022-12-04T06:49:29.235Z,86.83
2022-12-04T06:51:57.103Z,83.77
2022-12-04T06:54:26.007Z,82.47
2022-12-04T06:56:53.831Z,80.70
2022-12-04T06:59:23.770Z,79.63
2022-12-04T07:01:51.695Z,88.40
2022-12-04T07:04:19.671Z,84.60
2022-12-04T07:06:47.673Z,79.67
2022-12-04T07:09:17.018Z,81.33
2022-12-04T07:11:45.678Z,83.07
2022-12-04T07:14:14.411Z,83.67
2022-12-04T07:16:43.947Z,86.77
2022-12-04T07:19:13.595Z,75.27
2022-12-04T07:21:41.676Z,81.13
2022-12-04T07:24:10.095Z,87.00
2022-12-04T07:26:37.979Z,87.60
2022-12-04T07:29:05.921Z,82.17
2022-12-04T07:31:33.798Z,80.80
2022-12-04T07:34:03.052Z,85.63
2022-12-04T07:36:30.956Z,88.43
2022-12-04T07:39:01.458Z,85.50
2022-12-04T07:41:29.254Z,83.43
2022-12-04T07:43:57.111Z,86.57
2022-12-04T07:46:26.997Z,85.53
2022-12-04T07:48:56.679Z,91.47
2022-12-04T07:51:27.632Z,91.03
2022-12-04T07:54:01.985Z,94.57
2022-12-04T07:56:31.344Z,88.20
2022-12-04T07:59:00.118Z,88.83
2022-12-04T08:01:28.148Z,78.87
2022-12-04T08:03:57.713Z,81.60
2022-12-04T08:06:28.654Z,83.20
2022-12-04T08:08:57.220Z,86.07
2022-12-04T08:11:26.351Z,80.20
2022-12-04T08:13:55.640Z,83.57
2022-12-04T08:16:23.871Z,81.87
2022-12-04T08:18:52.009Z,84.83
2022-12-04T08:21:21.570Z,86.07
2022-12-04T08:23:52.407Z,81.23
2022-12-04T08:26:21.687Z,79.17
2022-12-04T08:28:49.843Z,77.70
2022-12-04T08:31:22.091Z,79.93
2022-12-04T08:33:51.454Z,84.47
2022-12-04T08:36:22.368Z,84.20
2022-12-04T08:38:52.280Z,75.73
2022-12-04T08:41:24.180Z,76.40
2022-12-04T08:43:54.545Z,75.43
2022-12-04T08:46:22.954Z,82.93
2022-12-04T08:48:51.026Z,85.70
2022-12-04T08:51:21.185Z,77.93
2022-12-04T08:53:53.257Z,72.60
2022-12-04T08:56:21.104Z,76.20
2022-12-04T08:58:48.965Z,80.80
2022-12-04T09:01:17.133Z,77.30
2022-12-04T09:03:45.360Z,81.73
2022-12-04T09:06:14.758Z,74.37
2022-12-04T09:08:43.050Z,180.50
2022-12-04T09:11:13.360Z,78.73
2022-12-04T09:13:41.542Z,75.97
2022-12-04T09:16:10.869Z,70.10
2022-12-04T09:18:39.308Z,77.17
2022-12-04T09:21:09.617Z,72.87
2022-12-04T09:23:38.426Z,69.80
2022-12-04T09:26:08.402Z,68.93
2022-12-04T09:28:37.541Z,73.63
2022-12-04T09:31:07.808Z,66.63
2022-12-04T09:33:35.633Z,71.73
2022-12-04T09:36:04.834Z,65.73
2022-12-04T09:38:32.939Z,68.73
2022-12-04T09:41:06.491Z,69.23
2022-12-04T09:43:40.694Z,69.53
2022-12-04T09:46:11.772Z,66.77
2022-12-04T09:48:43.632Z,68.10
2022-12-04T09:51:18.648Z,77.10
2022-12-04T09:53:48.895Z,65.83
2022-12-04T09:56:19.700Z,67.23
2022-12-04T09:58:52.347Z,70.60
2022-12-04T10:01:23.844Z,70.57
2022-12-04T10:03:51.840Z,73.13
2022-12-04T10:06:23.039Z,67.50
2022-12-04T10:08:54.402Z,63.87
2022-12-04T10:11:32.478Z,63.43
2022-12-04T10:14:20.075Z,64.67
2022-12-04T10:17:02.665Z,62.23
2022-12-04T10:19:34.792Z,68.90
2022-12-04T10:22:10.048Z,64.10
2022-12-04T10:24:42.884Z,65.03
2022-12-04T10:27:20.747Z,68.97
2022-12-04T10:29:52.438Z,63.30
2022-12-04T10:32:23.186Z,67.70
2022-12-04T10:34:53.747Z,60.40
2022-12-04T10:37:22.650Z,64.57
2022-12-04T10:39:53.274Z,62.97
2022-12-04T10:42:29.136Z,58.43
2022-12-04T10:44:58.413Z,62.30
2022-12-04T10:47:26.551Z,62.13
2022-12-04T10:50:01.520Z,61.10
2022-12-04T10:52:29.593Z,62.23
2022-12-04T10:54:59.911Z,60.13
2022-12-04T10:57:36.940Z,58.20
2022-12-04T11:00:25.124Z,61.37
2022-12-04T11:02:53.469Z,64.60
2022-12-04T11:05:26.323Z,62.47
2022-12-04T11:07:54.665Z,58.30
2022-12-04T11:10:29.366Z,59.30
2022-12-04T11:12:58.209Z,59.10
2022-12-04T11:15:27.821Z,61.90
2022-12-04T11:17:55.686Z,64.83
2022-12-04T11:20:25.517Z,61.77
2022-12-04T11:22:56.813Z,56.10
2022-12-04T11:25:27.141Z,60.40
2022-12-04T11:27:56.639Z,60.77
2022-12-04T11:30:30.040Z,56.90
2022-12-04T11:32:58.148Z,57.00
2022-12-04T11:35:28.040Z,59.33
2022-12-04T11:37:59.003Z,55.63
2022-12-04T11:40:28.091Z,54.37
2022-12-04T11:43:02.307Z,54.77
2022-12-04T11:45:31.961Z,59.50
2022-12-04T11:48:01.963Z,54.13
2022-12-04T11:50:36.255Z,54.70
2022-12-04T11:53:11.819Z,57.17
2022-12-04T11:55:48.144Z,57.30
2022-12-04T11:58:32.427Z,49.83
2022-12-04T12:01:14.998Z,53.83
2022-12-04T12:03:48.536Z,51.47
2022-12-04T12:06:34.237Z,54.47
2022-12-04T12:09:09.967Z,56.13
2022-12-04T12:11:41.697Z,56.27
2022-12-04T12:14:15.352Z,47.73
2022-12-04T12:19:47.921Z,50.30
2022-12-04T12:22:26.048Z,55.27
2022-12-04T12:24:59.116Z,59.27
2022-12-04T12:27:47.397Z,53.27
2022-12-04T12:30:17.782Z,60.53
2022-12-04T12:33:05.703Z,56.33
2022-12-04T12:35:38.879Z,58.53
2022-12-04T12:38:08.239Z,61.57
2022-12-04T12:40:39.793Z,59.70
2022-12-04T12:43:11.071Z,60.70
2022-12-04T12:45:46.160Z,59.17
2022-12-04T12:48:27.971Z,58.67
2022-12-04T12:51:21.965Z,53.27
2022-12-04T12:53:51.245Z,53.03
2022-12-04T12:56:20.243Z,58.33
2022-12-04T12:58:52.235Z,56.40
2022-12-04T13:01:24.430Z,54.23
2022-12-04T13:03:59.565Z,57.07
2022-12-04T13:06:31.412Z,57.37
2022-12-04T13:09:06.564Z,56.07
2022-12-04T13:11:35.081Z,56.07
2022-12-04T13:14:04.163Z,55.23
2022-12-04T13:16:36.222Z,60.37
2022-12-04T13:19:10.769Z,62.17
2022-12-04T13:21:43.461Z,56.50
2022-12-04T13:24:55.786Z,58.30
2022-12-04T13:27:31.421Z,59.40
2022-12-04T13:30:08.977Z,60.60
2022-12-04T13:32:57.156Z,60.10
2022-12-04T13:35:32.089Z,64.10
2022-12-04T13:38:11.579Z,62.17
2022-12-04T13:40:41.500Z,60.00
2022-12-04T13:43:25.508Z,63.87
2022-12-04T13:45:55.318Z,62.13
2022-12-04T13:48:39.534Z,67.37
2022-12-04T13:51:25.725Z,66.40
2022-12-04T13:54:22.239Z,64.93
2022-12-04T13:56:51.572Z,64.83
2022-12-04T13:59:23.282Z,69.27
2022-12-04T14:01:52.859Z,74.00
2022-12-04T14:04:29.699Z,73.43
2022-12-04T14:07:00.972Z,67.97
2022-12-04T14:09:30.541Z,71.73
2022-12-04T14:12:01.003Z,67.30
2022-12-04T14:14:30.885Z,71.80
2022-12-04T14:17:00.021Z,67.40
2022-12-04T14:19:31.724Z,70.80
2022-12-04T14:22:01.194Z,68.63
2022-12-04T14:24:36.003Z,73.60
2022-12-04T14:27:24.976Z,73.00
2022-12-04T14:29:54.245Z,73.47
2022-12-04T14:32:24.292Z,70.47
2022-12-04T14:34:53.035Z,77.67
2022-12-04T14:37:25.932Z,73.83
2022-12-04T14:39:54.352Z,74.57
2022-12-04T14:42:25.261Z,74.77
2022-12-04T14:44:55.898Z,80.03
2022-12-04T14:47:32.920Z,79.20
2022-12-04T14:50:13.001Z,79.97
2022-12-04T14:52:46.007Z,85.23
2022-12-04T14:55:21.450Z,87.90
2022-12-04T14:57:54.317Z,90.67
2022-12-04T15:00:23.791Z,153.40
2022-12-04T15:02:53.569Z,84.00
2022-12-04T15:05:25.573Z,82.53
2022-12-04T15:07:57.969Z,87.80
2022-12-04T15:10:44.926Z,85.57
2022-12-04T15:13:14.928Z,86.30
2022-12-04T15:15:47.485Z,90.30
2022-12-04T15:18:17.581Z,84.13
2022-12-04T15:20:55.960Z,90.03
2022-12-04T15:23:28.605Z,85.07
2022-12-04T15:25:57.757Z,87.30
2022-12-04T15:28:27.917Z,88.13
2022-12-04T15:30:57.262Z,92.17
2022-12-04T15:33:27.032Z,94.27
2022-12-04T15:35:57.438Z,85.57
2022-12-04T15:38:26.768Z,90.47
2022-12-04T15:40:56.567Z,95.10
2022-12-04T15:43:29.107Z,102.87
2022-12-04T15:45:57.973Z,95.87
2022-12-04T15:48:27.508Z,99.00
2022-12-04T15:51:00.123Z,99.33
2022-12-04T15:53:30.810Z,94.43
2022-12-04T15:56:02.121Z,102.83
2022-12-04T15:58:31.213Z,109.33
2022-12-04T16:01:00.595Z,111.00
2022-12-04T16:03:31.793Z,119.63
2022-12-04T16:06:08.838Z,114.67
2022-12-04T16:08:39.942Z,119.67
2022-12-04T16:11:09.477Z,111.93
2022-12-04T16:13:39.192Z,124.13
2022-12-04T16:16:09.332Z,117.07
2022-12-04T16:18:38.525Z,116.17
2022-12-04T16:21:06.882Z,127.70
2022-12-04T16:23:34.703Z,124.07
2022-12-04T16:26:03.881Z,119.77
2022-12-04T16:28:31.738Z,124.63
2022-12-04T16:30:59.607Z,121.57
2022-12-04T16:33:27.632Z,129.60
2022-12-04T16:35:55.408Z,133.53
2022-12-04T16:38:23.253Z,136.93
2022-12-04T16:40:51.135Z,121.70
2022-12-04T16:43:20.300Z,136.57
2022-12-04T16:45:49.346Z,557.07
2022-12-04T16:48:17.342Z,132.17
2022-12-04T16:50:46.133Z,139.13
2022-12-04T16:53:17.235Z,137.47
2022-12-04T16:55:46.800Z,141.37
2022-12-04T16:58:15.141Z,146.60
2022-12-04T17:00:46.169Z,145.37
2022-12-04T17:03:17.448Z,145.97
2022-12-04T17:05:45.291Z,140.30
2022-12-04T17:08:13.176Z,129.57
2022-12-04T17:10:41.014Z,137.67
2022-12-04T17:13:08.860Z,143.43
2022-12-04T17:15:36.984Z,141.10
2022-12-04T17:18:12.020Z,149.27
2022-12-04T17:20:42.196Z,145.30
2022-12-04T17:23:11.037Z,157.63
2022-12-04T17:25:39.269Z,146.40
2022-12-04T17:28:07.289Z,144.13
2022-12-04T17:30:36.416Z,141.97
2022-12-04T17:33:06.124Z,145.50
2022-12-04T17:35:34.114Z,145.97
2022-12-04T17:38:05.851Z,137.27
2022-12-04T17:40:34.582Z,136.93
2022-12-04T17:43:02.620Z,145.33
2022-12-04T17:45:30.500Z,135.70
2022-12-04T17:47:58.269Z,137.10
2022-12-04T17:50:27.706Z,136.87
2022-12-04T17:52:55.478Z,148.00
2022-12-04T17:55:23.234Z,135.50
2022-12-04T17:57:51.164Z,134.07
2022-12-04T18:00:19.218Z,139.23
2022-12-04T18:02:52.871Z,136.40
2022-12-04T18:05:21.573Z,128.57
2022-12-04T18:07:50.817Z,139.03
2022-12-04T18:10:18.645Z,158.67
2022-12-04T18:12:46.468Z,129.53
2022-12-04T18:15:14.328Z,132.00
2022-12-04T18:17:42.115Z,125.10
2022-12-04T18:20:10.966Z,130.43
2022-12-04T18:22:38.924Z,131.77
2022-12-04T18:25:09.197Z,139.23
2022-12-04T18:27:41.696Z,137.90
2022-12-04T18:30:10.557Z,134.10
2022-12-04T18:32:38.450Z,133.63
2022-12-04T18:35:06.903Z,122.37
2022-12-04T18:37:35.058Z,125.20
2022-12-04T18:40:06.629Z,122.27
2022-12-04T18:42:36.337Z,124.53
2022-12-04T18:45:04.531Z,122.07
2022-12-04T18:47:32.369Z,119.10
2022-12-04T18:50:00.607Z,120.80
2022-12-04T18:52:28.670Z,113.10
2022-12-04T18:54:56.457Z,108.93
2022-12-04T18:57:24.241Z,127.43
2022-12-04T18:59:53.480Z,122.43
2022-12-04T19:02:21.413Z,119.90
2022-12-04T19:04:49.294Z,114.20
2022-12-04T19:07:18.644Z,116.57
2022-12-04T19:12:34.667Z,111.07
2022-12-04T19:15:03.964Z,119.33
2022-12-04T19:17:31.806Z,126.53
2022-12-04T19:19:59.806Z,111.47
2022-12-04T19:22:27.706Z,112.00
2022-12-04T19:24:55.573Z,111.00
2022-12-04T19:27:23.331Z,108.47
2022-12-04T19:29:51.060Z,116.97
2022-12-04T19:32:21.327Z,109.50
2022-12-04T19:34:49.267Z,98.57
2022-12-04T19:37:17.382Z,108.10
2022-12-04T19:39:45.380Z,100.10
2022-12-04T19:42:13.262Z,114.73
2022-12-04T19:44:49.652Z,105.83
2022-12-04T19:47:19.968Z,95.87
2022-12-04T19:49:48.019Z,94.77
2022-12-04T19:52:15.989Z,98.07
2022-12-04T19:54:43.792Z,95.70
2022-12-04T19:57:11.571Z,99.87
2022-12-04T19:59:44.482Z,95.43
2022-12-04T20:02:14.309Z,100.27
2022-12-04T20:04:44.082Z,104.57
2022-12-04T20:07:12.224Z,102.80
2022-12-04T20:09:40.206Z,104.40
2022-12-04T20:12:08.482Z,99.20
2022-12-04T20:14:36.380Z,99.17
2022-12-04T20:17:05.126Z,96.00
2022-12-04T20:19:33.269Z,97.67
2022-12-04T20:22:02.498Z,124.07
2022-12-04T20:24:30.326Z,101.83
2022-12-04T20:26:58.139Z,117.07
2022-12-04T20:29:25.962Z,98.70
2022-12-04T20:31:53.915Z,98.53
2022-12-04T20:34:21.691Z,98.50
2022-12-04T20:36:50.020Z,99.27
2022-12-04T20:39:20.242Z,96.20
2022-12-04T20:41:48.186Z,100.80
2022-12-04T20:44:18.124Z,103.33
2022-12-04T20:46:46.135Z,95.27
2022-12-04T20:49:21.272Z,102.10
2022-12-04T20:51:51.335Z,104.97
2022-12-04T20:54:22.544Z,95.73
2022-12-04T20:56:52.745Z,94.53
2022-12-04T20:59:21.879Z,104.97
2022-12-04T21:01:50.438Z,99.73
2022-12-04T21:04:18.675Z,98.53
2022-12-04T21:06:47.570Z,95.77
2022-12-04T21:09:16.565Z,99.60
2022-12-04T21:11:47.554Z,102.37
2022-12-04T21:14:33.794Z,95.90
2022-12-04T21:17:02.168Z,100.00
2022-12-04T21:19:29.987Z,104.10
2022-12-04T21:21:57.821Z,104.00
2022-12-04T21:24:27.860Z,109.37
2022-12-04T21:26:57.279Z,101.67
2022-12-04T21:29:25.237Z,107.67
2022-12-04T21:31:52.996Z,104.30
2022-12-04T21:34:20.923Z,103.33
2022-12-04T21:36:48.739Z,104.37
2022-12-04T21:39:16.750Z,97.87
2022-12-04T21:42:02.297Z,99.90
2022-12-04T21:44:31.607Z,96.83
2022-12-04T21:46:59.658Z,100.90
2022-12-04T21:49:27.766Z,106.67
2022-12-04T21:51:58.139Z,96.23
2022-12-04T21:54:26.653Z,106.17
2022-12-04T21:56:54.496Z,106.43
2022-12-04T21:59:22.631Z,103.10
2022-12-04T22:01:52.226Z,103.30
2022-12-04T22:04:20.118Z,108.40
2022-12-04T22:06:48.058Z,102.37
2022-12-04T22:09:15.918Z,105.77
2022-12-04T22:11:44.470Z,106.97
2022-12-04T22:14:13.301Z,102.53
2022-12-04T22:16:42.735Z,103.43
2022-12-04T22:19:12.925Z,100.10
2022-12-04T22:21:41.143Z,112.63
2022-12-04T22:24:10.381Z,106.73
2022-12-04T22:26:38.827Z,108.67
2022-12-04T22:29:27.263Z,116.43
2022-12-04T22:31:54.937Z,106.17
2022-12-04T22:34:24.146Z,112.67
2022-12-04T22:36:51.894Z,104.03
2022-12-04T22:39:19.756Z,109.00
2022-12-04T22:41:47.519Z,109.93
2022-12-04T22:44:15.356Z,112.90
2022-12-04T22:46:43.312Z,110.67
2022-12-04T22:49:11.115Z,110.73
2022-12-04T22:51:40.281Z,111.60
2022-12-04T22:54:08.170Z,115.47
2022-12-04T22:56:35.945Z,111.50
2022-12-04T22:59:03.761Z,106.63
2022-12-04T23:01:32.804Z,113.93
2022-12-04T23:04:01.076Z,114.87
2022-12-04T23:06:30.534Z,108.00
2022-12-04T23:09:01.460Z,116.80
2022-12-04T23:11:30.035Z,108.73
2022-12-04T23:14:00.057Z,116.20
2022-12-04T23:16:29.185Z,111.43
2022-12-04T23:18:57.643Z,111.27
2022-12-04T23:21:26.332Z,109.43
2022-12-04T23:23:54.943Z,122.70
2022-12-04T23:26:27.932Z,117.87
2022-12-04T23:28:56.545Z,112.47
2022-12-04T23:31:24.627Z,119.77
2022-12-04T23:33:52.839Z,116.30
2022-12-04T23:36:21.022Z,124.17
2022-12-04T23:38:49.045Z,116.47
2022-12-04T23:41:19.530Z,123.20
2022-12-04T23:43:49.501Z,109.57
2022-12-04T23:46:20.464Z,124.23
2022-12-04T23:48:48.959Z,120.57
2022-12-04T23:51:18.544Z,112.00
2022-12-04T23:53:47.210Z,114.37
2022-12-04T23:56:16.701Z,119.47
2022-12-04T23:58:46.011Z,120.57
